sensor_id;sensor_type;location;lat;lon;timestamp;pressure;altitude;pressure_sealevel;temperature;humidity
8575;BME280;4325;42.520;27.448;2022-12-13T00:00:58;100305.31;;;6.53;100.00
8575;BME280;4325;42.520;27.448;2022-12-13T00:03:25;100308.47;;;6.45;100.00
8575;BME280;4325;42.520;27.448;2022-12-13T00:05:52;100295.91;;;6.39;100.00
8575;BME280;4325;42.520;27.448;2022-12-13T00:08:19;100294.53;;;6.37;100.00
8575;BME280;4325;42.520;27.448;2022-12-13T00:10:45;100318.72;;;6.38;100.00
8575;BME280;4325;42.520;27.448;2022-12-13T00:13:12;100325.69;;;6.29;100.00
8575;BME280;4325;42.520;27.448;2022-12-13T00:15:39;100331.97;;;6.30;100.00
8575;BME280;4325;42.520;27.448;2022-12-13T00:18:07;100342.84;;;6.30;100.00
8575;BME280;4325;42.520;27.448;2022-12-13T00:20:38;100373.56;;;6.30;100.00
8575;BME280;4325;42.520;27.448;2022-12-13T00:23:05;100377.91;;;6.31;100.00
8575;BME280;4325;42.520;27.448;2022-12-13T00:25:32;100382.72;;;6.24;100.00
8575;BME280;4325;42.520;27.448;2022-12-13T00:27:59;100389.56;;;6.27;100.00
8575;BME280;4325;42.520;27.448;2022-12-13T00:30:26;100395.00;;;6.27;100.00
8575;BME280;4325;42.520;27.448;2022-12-13T00:32:55;100395.81;;;6.27;100.00
8575;BME280;4325;42.520;27.448;2022-12-13T00:35:24;100405.94;;;6.32;100.00
8575;BME280;4325;42.520;27.448;2022-12-13T00:37:51;100419.25;;;6.33;100.00
8575;BME280;4325;42.520;27.448;2022-12-13T00:40:17;100401.00;;;6.29;100.00
8575;BME280;4325;42.520;27.448;2022-12-13T00:42:45;100402.31;;;6.26;100.00
8575;BME280;4325;42.520;27.448;2022-12-13T00:45:12;100396.25;;;6.19;100.00
8575;BME280;4325;42.520;27.448;2022-12-13T00:47:39;100402.00;;;6.23;100.00
8575;BME280;4325;42.520;27.448;2022-12-13T00:50:06;100401.19;;;6.22;100.00
8575;BME280;4325;42.520;27.448;2022-12-13T00:52:34;100402.81;;;6.23;100.00
8575;BME280;4325;42.520;27.448;2022-12-13T00:55:02;100413.53;;;6.30;100.00
8575;BME280;4325;42.520;27.448;2022-12-13T00:57:29;100420.72;;;6.19;100.00
8575;BME280;4325;42.520;27.448;2022-12-13T00:59:55;100416.09;;;6.20;100.00
8575;BME280;4325;42.520;27.448;2022-12-13T01:02:24;100426.06;;;6.14;100.00
8575;BME280;4325;42.520;27.448;2022-12-13T01:04:50;100412.41;;;6.09;100.00
8575;BME280;4325;42.520;27.448;2022-12-13T01:07:17;100423.28;;;6.09;100.00
8575;BME280;4325;42.520;27.448;2022-12-13T01:09:45;100429.19;;;6.06;100.00
8575;BME280;4325;42.520;27.448;2022-12-13T01:12:12;100408.97;;;5.97;100.00
8575;BME280;4325;42.520;27.448;2022-12-13T01:14:39;100423.66;;;5.96;100.00
8575;BME280;4325;42.520;27.448;2022-12-13T01:17:07;100441.25;;;5.93;100.00
8575;BME280;4325;42.520;27.448;2022-12-13T01:19:34;100448.00;;;5.91;100.00
8575;BME280;4325;42.520;27.448;2022-12-13T01:22:03;100451.31;;;5.93;100.00
8575;BME280;4325;42.520;27.448;2022-12-13T01:24:31;100449.16;;;5.95;100.00
8575;BME280;4325;42.520;27.448;2022-12-13T01:26:59;100457.88;;;5.97;100.00
8575;BME280;4325;42.520;27.448;2022-12-13T01:29:26;100458.53;;;6.04;100.00
8575;BME280;4325;42.520;27.448;2022-12-13T01:31:53;100451.78;;;6.07;100.00
8575;BME280;4325;42.520;27.448;2022-12-13T01:34:22;100448.19;;;6.01;100.00
8575;BME280;4325;42.520;27.448;2022-12-13T01:36:49;100456.63;;;6.05;100.00
8575;BME280;4325;42.520;27.448;2022-12-13T01:39:17;100461.50;;;6.03;100.00
8575;BME280;4325;42.520;27.448;2022-12-13T01:41:47;100463.81;;;5.94;100.00
8575;BME280;4325;42.520;27.448;2022-12-13T01:47:23;100452.84;;;5.89;100.00
8575;BME280;4325;42.520;27.448;2022-12-13T01:49:52;100434.34;;;5.86;100.00
8575;BME280;4325;42.520;27.448;2022-12-13T01:52:21;100460.31;;;5.82;100.00
8575;BME280;4325;42.520;27.448;2022-12-13T01:54:50;100483.63;;;5.78;100.00
8575;BME280;4325;42.520;27.448;2022-12-13T01:57:18;100496.06;;;5.74;100.00
8575;BME280;4325;42.520;27.448;2022-12-13T01:59:48;100500.31;;;5.70;100.00
8575;BME280;4325;42.520;27.448;2022-12-13T02:02:16;100486.66;;;5.65;100.00
8575;BME280;4325;42.520;27.448;2022-12-13T02:05:03;100498.03;;;5.62;100.00
8575;BME280;4325;42.520;27.448;2022-12-13T02:07:33;100496.94;;;5.63;100.00
8575;BME280;4325;42.520;27.448;2022-12-13T02:10:03;100501.78;;;5.61;100.00
8575;BME280;4325;42.520;27.448;2022-12-13T02:12:33;100513.66;;;5.55;100.00
8575;BME280;4325;42.520;27.448;2022-12-13T02:15:03;100524.56;;;5.60;100.00
8575;BME280;4325;42.520;27.448;2022-12-13T02:17:38;100509.38;;;5.59;100.00
8575;BME280;4325;42.520;27.448;2022-12-13T02:23:23;100501.13;;;5.54;100.00
8575;BME280;4325;42.520;27.448;2022-12-13T02:26:18;100492.88;;;5.49;100.00
8575;BME280;4325;42.520;27.448;2022-12-13T02:29:06;100496.66;;;5.48;100.00
8575;BME280;4325;42.520;27.448;2022-12-13T02:31:43;100496.66;;;5.48;100.00
8575;BME280;4325;42.520;27.448;2022-12-13T02:34:17;100522.66;;;5.44;100.00
8575;BME280;4325;42.520;27.448;2022-12-13T02:36:59;100529.94;;;5.55;100.00
8575;BME280;4325;42.520;27.448;2022-12-13T02:39:31;100513.13;;;5.58;100.00
8575;BME280;4325;42.520;27.448;2022-12-13T02:42:01;100544.91;;;5.57;100.00
8575;BME280;4325;42.520;27.448;2022-12-13T02:44:34;100526.97;;;5.56;100.00
8575;BME280;4325;42.520;27.448;2022-12-13T02:47:07;100519.56;;;5.52;100.00
8575;BME280;4325;42.520;27.448;2022-12-13T02:49:39;100540.81;;;5.55;100.00
8575;BME280;4325;42.520;27.448;2022-12-13T02:52:09;100539.50;;;5.57;100.00
8575;BME280;4325;42.520;27.448;2022-12-13T02:54:37;100534.84;;;5.58;100.00
8575;BME280;4325;42.520;27.448;2022-12-13T02:57:27;100539.72;;;5.56;100.00
8575;BME280;4325;42.520;27.448;2022-12-13T02:59:55;100522.84;;;5.54;100.00
8575;BME280;4325;42.520;27.448;2022-12-13T03:02:30;100516.28;;;5.50;100.00
8575;BME280;4325;42.520;27.448;2022-12-13T03:05:05;100521.78;;;5.55;100.00
8575;BME280;4325;42.520;27.448;2022-12-13T03:07:59;100534.19;;;5.51;100.00
8575;BME280;4325;42.520;27.448;2022-12-13T03:10:38;100523.91;;;5.53;100.00
8575;BME280;4325;42.520;27.448;2022-12-13T03:13:08;100535.50;;;5.48;100.00
8575;BME280;4325;42.520;27.448;2022-12-13T03:15:58;100547.66;;;5.46;100.00
8575;BME280;4325;42.520;27.448;2022-12-13T03:18:27;100548.25;;;5.48;100.00
8575;BME280;4325;42.520;27.448;2022-12-13T03:21:01;100563.97;;;5.46;100.00
8575;BME280;4325;42.520;27.448;2022-12-13T03:23:29;100562.31;;;5.45;100.00
8575;BME280;4325;42.520;27.448;2022-12-13T03:26:00;100548.03;;;5.49;100.00
8575;BME280;4325;42.520;27.448;2022-12-13T03:28:28;100549.91;;;5.49;100.00
8575;BME280;4325;42.520;27.448;2022-12-13T03:30:55;100568.66;;;5.50;100.00
8575;BME280;4325;42.520;27.448;2022-12-13T03:33:22;100573.03;;;5.51;100.00
8575;BME280;4325;42.520;27.448;2022-12-13T03:35:50;100575.75;;;5.51;100.00
8575;BME280;4325;42.520;27.448;2022-12-13T03:38:17;100557.56;;;5.52;100.00
8575;BME280;4325;42.520;27.448;2022-12-13T03:40:45;100564.16;;;5.56;100.00
8575;BME280;4325;42.520;27.448;2022-12-13T03:43:11;100570.66;;;5.55;100.00
8575;BME280;4325;42.520;27.448;2022-12-13T03:45:38;100563.69;;;5.59;100.00
8575;BME280;4325;42.520;27.448;2022-12-13T03:48:05;100567.44;;;5.58;100.00
8575;BME280;4325;42.520;27.448;2022-12-13T03:50:32;100572.41;;;5.61;100.00
8575;BME280;4325;42.520;27.448;2022-12-13T03:53:01;100589.75;;;5.60;100.00
8575;BME280;4325;42.520;27.448;2022-12-13T03:55:28;100607.13;;;5.59;100.00
8575;BME280;4325;42.520;27.448;2022-12-13T03:57:55;100610.69;;;5.59;100.00
8575;BME280;4325;42.520;27.448;2022-12-13T04:00:22;100617.75;;;5.60;100.00
8575;BME280;4325;42.520;27.448;2022-12-13T04:02:49;100603.00;;;5.56;100.00
8575;BME280;4325;42.520;27.448;2022-12-13T04:05:16;100603.31;;;5.60;100.00
8575;BME280;4325;42.520;27.448;2022-12-13T04:07:43;100597.41;;;5.63;100.00
8575;BME280;4325;42.520;27.448;2022-12-13T04:10:11;100605.47;;;5.58;100.00
8575;BME280;4325;42.520;27.448;2022-12-13T04:12:38;100615.28;;;5.59;100.00
8575;BME280;4325;42.520;27.448;2022-12-13T04:15:22;100609.25;;;5.57;100.00
8575;BME280;4325;42.520;27.448;2022-12-13T04:17:49;100599.47;;;5.56;100.00
8575;BME280;4325;42.520;27.448;2022-12-13T04:20:16;100597.31;;;5.58;100.00
8575;BME280;4325;42.520;27.448;2022-12-13T04:22:42;100605.25;;;5.59;100.00
8575;BME280;4325;42.520;27.448;2022-12-13T04:25:11;100610.09;;;5.57;100.00
8575;BME280;4325;42.520;27.448;2022-12-13T04:27:37;100619.63;;;5.60;100.00
8575;BME280;4325;42.520;27.448;2022-12-13T04:30:05;100627.88;;;5.65;100.00
8575;BME280;4325;42.520;27.448;2022-12-13T04:32:33;100623.16;;;5.72;100.00
8575;BME280;4325;42.520;27.448;2022-12-13T04:35:00;100615.56;;;5.74;100.00
8575;BME280;4325;42.520;27.448;2022-12-13T04:37:27;100619.44;;;5.78;100.00
8575;BME280;4325;42.520;27.448;2022-12-13T04:39:53;100627.59;;;5.78;100.00
8575;BME280;4325;42.520;27.448;2022-12-13T04:42:22;100641.66;;;5.75;96.50
8575;BME280;4325;42.520;27.448;2022-12-13T04:44:48;100631.53;;;5.70;92.72
8575;BME280;4325;42.520;27.448;2022-12-13T04:47:15;100635.44;;;5.63;89.10
8575;BME280;4325;42.520;27.448;2022-12-13T04:49:42;100646.78;;;5.60;88.72
8575;BME280;4325;42.520;27.448;2022-12-13T04:52:10;100645.63;;;5.56;86.76
8575;BME280;4325;42.520;27.448;2022-12-13T04:54:37;100636.91;;;5.54;85.85
8575;BME280;4325;42.520;27.448;2022-12-13T04:57:05;100635.75;;;5.50;88.15
8575;BME280;4325;42.520;27.448;2022-12-13T04:59:34;100647.53;;;5.44;89.43
8575;BME280;4325;42.520;27.448;2022-12-13T05:02:03;100658.16;;;5.45;90.01
8575;BME280;4325;42.520;27.448;2022-12-13T05:04:30;100664.19;;;5.47;87.86
8575;BME280;4325;42.520;27.448;2022-12-13T05:06:57;100656.63;;;5.49;86.86
8575;BME280;4325;42.520;27.448;2022-12-13T05:09:23;100665.84;;;5.48;87.05
8575;BME280;4325;42.520;27.448;2022-12-13T05:11:50;100665.50;;;5.45;83.41
8575;BME280;4325;42.520;27.448;2022-12-13T05:14:17;100674.22;;;5.47;83.24
8575;BME280;4325;42.520;27.448;2022-12-13T05:16:45;100671.84;;;5.50;85.39
8575;BME280;4325;42.520;27.448;2022-12-13T05:19:12;100676.00;;;5.41;86.36
8575;BME280;4325;42.520;27.448;2022-12-13T05:21:39;100689.34;;;5.43;82.08
8575;BME280;4325;42.520;27.448;2022-12-13T05:24:06;100696.78;;;5.47;78.91
8575;BME280;4325;42.520;27.448;2022-12-13T05:26:35;100703.97;;;5.42;78.06
8575;BME280;4325;42.520;27.448;2022-12-13T05:29:01;100710.34;;;5.35;78.33
8575;BME280;4325;42.520;27.448;2022-12-13T05:31:28;100710.84;;;5.32;79.51
8575;BME280;4325;42.520;27.448;2022-12-13T05:33:56;100715.66;;;5.30;72.82
8575;BME280;4325;42.520;27.448;2022-12-13T05:36:23;100715.56;;;5.25;75.75
8575;BME280;4325;42.520;27.448;2022-12-13T05:38:50;100725.34;;;5.26;75.14
8575;BME280;4325;42.520;27.448;2022-12-13T05:41:19;100730.31;;;5.29;74.71
8575;BME280;4325;42.520;27.448;2022-12-13T05:43:47;100732.66;;;5.26;69.80
8575;BME280;4325;42.520;27.448;2022-12-13T05:46:14;100736.47;;;5.25;69.69
8575;BME280;4325;42.520;27.448;2022-12-13T05:48:41;100734.94;;;5.17;70.73
8575;BME280;4325;42.520;27.448;2022-12-13T05:51:09;100736.22;;;5.15;66.57
8575;BME280;4325;42.520;27.448;2022-12-13T05:53:37;100742.94;;;5.12;65.43
8575;BME280;4325;42.520;27.448;2022-12-13T05:56:04;100746.38;;;5.08;65.25
8575;BME280;4325;42.520;27.448;2022-12-13T05:58:32;100751.44;;;5.04;65.36
8575;BME280;4325;42.520;27.448;2022-12-13T06:01:03;100764.41;;;5.02;67.83
8575;BME280;4325;42.520;27.448;2022-12-13T06:03:31;100772.69;;;5.07;67.28
8575;BME280;4325;42.520;27.448;2022-12-13T06:05:59;100769.38;;;5.05;68.60
8575;BME280;4325;42.520;27.448;2022-12-13T06:08:28;100777.63;;;5.10;68.98
8575;BME280;4325;42.520;27.448;2022-12-13T06:10:55;100775.25;;;5.14;68.75
8575;BME280;4325;42.520;27.448;2022-12-13T06:13:22;100782.94;;;5.17;69.75
8575;BME280;4325;42.520;27.448;2022-12-13T06:15:50;100781.91;;;5.18;66.91
8575;BME280;4325;42.520;27.448;2022-12-13T06:18:17;100788.03;;;5.13;70.41
8575;BME280;4325;42.520;27.448;2022-12-13T06:20:44;100787.91;;;5.20;69.55
8575;BME280;4325;42.520;27.448;2022-12-13T06:23:11;100792.97;;;5.16;67.88
8575;BME280;4325;42.520;27.448;2022-12-13T06:25:40;100788.03;;;5.13;67.24
8575;BME280;4325;42.520;27.448;2022-12-13T06:28:07;100796.75;;;5.15;66.56
8575;BME280;4325;42.520;27.448;2022-12-13T06:30:34;100798.88;;;5.13;66.17
8575;BME280;4325;42.520;27.448;2022-12-13T06:33:02;100809.25;;;5.16;65.75
8575;BME280;4325;42.520;27.448;2022-12-13T06:35:29;100800.53;;;5.14;64.46
8575;BME280;4325;42.520;27.448;2022-12-13T06:37:56;100804.91;;;5.15;65.67
8575;BME280;4325;42.520;27.448;2022-12-13T06:40:23;100814.69;;;5.16;66.47
8575;BME280;4325;42.520;27.448;2022-12-13T06:42:51;100809.75;;;5.13;66.60
8575;BME280;4325;42.520;27.448;2022-12-13T06:45:18;100822.13;;;5.21;69.45
8575;BME280;4325;42.520;27.448;2022-12-13T06:47:45;100819.78;;;5.24;64.72
8575;BME280;4325;42.520;27.448;2022-12-13T06:50:12;100812.81;;;5.28;64.93
8575;BME280;4325;42.520;27.448;2022-12-13T06:52:39;100814.47;;;5.29;64.84
8575;BME280;4325;42.520;27.448;2022-12-13T06:55:07;100820.59;;;5.37;64.26
8575;BME280;4325;42.520;27.448;2022-12-13T06:57:33;100823.44;;;5.42;63.21
8575;BME280;4325;42.520;27.448;2022-12-13T07:00:03;100826.28;;;5.47;62.56
8575;BME280;4325;42.520;27.448;2022-12-13T07:02:30;100824.97;;;5.49;63.39
8575;BME280;4325;42.520;27.448;2022-12-13T07:04:56;100836.41;;;5.63;64.26
8575;BME280;4325;42.520;27.448;2022-12-13T07:07:24;100842.09;;;5.73;64.03
8575;BME280;4325;42.520;27.448;2022-12-13T07:09:51;100845.66;;;5.85;64.07
8575;BME280;4325;42.520;27.448;2022-12-13T07:12:19;100838.91;;;5.87;62.41
8575;BME280;4325;42.520;27.448;2022-12-13T07:14:46;100848.56;;;6.07;63.02
8575;BME280;4325;42.520;27.448;2022-12-13T07:17:14;100856.22;;;6.21;61.65
8575;BME280;4325;42.520;27.448;2022-12-13T07:19:41;100848.84;;;6.33;58.88
8575;BME280;4325;42.520;27.448;2022-12-13T07:22:08;100848.00;;;6.44;58.96
8575;BME280;4325;42.520;27.448;2022-12-13T07:24:36;100858.84;;;6.56;58.47
8575;BME280;4325;42.520;27.448;2022-12-13T07:27:02;100863.13;;;6.52;56.37
8575;BME280;4325;42.520;27.448;2022-12-13T07:29:29;100861.94;;;6.48;54.91
8575;BME280;4325;42.520;27.448;2022-12-13T07:31:56;100876.63;;;6.47;55.33
8575;BME280;4325;42.520;27.448;2022-12-13T07:34:24;100870.34;;;6.46;55.64
8575;BME280;4325;42.520;27.448;2022-12-13T07:36:51;100874.47;;;6.49;56.18
8575;BME280;4325;42.520;27.448;2022-12-13T07:39:18;100887.72;;;6.57;55.95
8575;BME280;4325;42.520;27.448;2022-12-13T07:41:45;100887.94;;;6.55;55.85
8575;BME280;4325;42.520;27.448;2022-12-13T07:44:12;100900.59;;;6.61;53.92
8575;BME280;4325;42.520;27.448;2022-12-13T07:46:39;100899.03;;;6.65;53.07
8575;BME280;4325;42.520;27.448;2022-12-13T07:49:06;100902.78;;;6.64;53.00
8575;BME280;4325;42.520;27.448;2022-12-13T07:51:34;100899.81;;;6.78;54.53
8575;BME280;4325;42.520;27.448;2022-12-13T07:54:01;100914.44;;;6.88;58.15
8575;BME280;4325;42.520;27.448;2022-12-13T07:56:28;100915.16;;;7.12;59.40
8575;BME280;4325;42.520;27.448;2022-12-13T07:58:55;100904.53;;;7.27;58.38
8575;BME280;4325;42.520;27.448;2022-12-13T08:01:22;100913.47;;;7.56;61.30
8575;BME280;4325;42.520;27.448;2022-12-13T08:03:49;100920.22;;;7.86;64.83
8575;BME280;4325;42.520;27.448;2022-12-13T08:06:16;100925.50;;;8.10;56.47
8575;BME280;4325;42.520;27.448;2022-12-13T08:08:45;100924.16;;;8.29;54.85
8575;BME280;4325;42.520;27.448;2022-12-13T08:11:15;100931.38;;;8.40;51.71
8575;BME280;4325;42.520;27.448;2022-12-13T08:13:42;100934.81;;;8.52;50.41
8575;BME280;4325;42.520;27.448;2022-12-13T08:16:11;100935.28;;;8.66;49.41
8575;BME280;4325;42.520;27.448;2022-12-13T08:18:39;100945.16;;;8.72;48.71
8575;BME280;4325;42.520;27.448;2022-12-13T08:21:06;100941.31;;;8.68;47.55
8575;BME280;4325;42.520;27.448;2022-12-13T08:23:34;100944.22;;;8.61;48.19
8575;BME280;4325;42.520;27.448;2022-12-13T08:26:03;100940.09;;;8.58;47.82
8575;BME280;4325;42.520;27.448;2022-12-13T08:28:31;100950.25;;;8.63;48.59
8575;BME280;4325;42.520;27.448;2022-12-13T08:31:02;100952.50;;;8.66;48.00
8575;BME280;4325;42.520;27.448;2022-12-13T08:33:29;100958.25;;;8.70;48.01
8575;BME280;4325;42.520;27.448;2022-12-13T08:35:56;100964.09;;;8.78;46.67
8575;BME280;4325;42.520;27.448;2022-12-13T08:38:23;100955.72;;;8.85;46.64
8575;BME280;4325;42.520;27.448;2022-12-13T08:40:50;100957.75;;;8.94;51.22
8575;BME280;4325;42.520;27.448;2022-12-13T08:43:18;100969.72;;;8.93;46.60
8575;BME280;4325;42.520;27.448;2022-12-13T08:45:45;100973.69;;;9.02;45.74
8575;BME280;4325;42.520;27.448;2022-12-13T08:48:15;100965.72;;;9.01;45.05
8575;BME280;4325;42.520;27.448;2022-12-13T08:50:42;100962.84;;;8.86;45.57
8575;BME280;4325;42.520;27.448;2022-12-13T08:53:08;100956.16;;;8.77;45.49
8575;BME280;4325;42.520;27.448;2022-12-13T08:55:36;100962.78;;;8.59;45.57
8575;BME280;4325;42.520;27.448;2022-12-13T08:58:04;100956.00;;;8.45;45.97
8575;BME280;4325;42.520;27.448;2022-12-13T09:00:34;100960.81;;;8.38;46.54
8575;BME280;4325;42.520;27.448;2022-12-13T09:03:01;100947.25;;;8.43;53.38
8575;BME280;4325;42.520;27.448;2022-12-13T09:05:28;100939.63;;;8.45;53.73
8575;BME280;4325;42.520;27.448;2022-12-13T09:07:56;100938.84;;;8.44;52.73
8575;BME280;4325;42.520;27.448;2022-12-13T09:10:24;100933.88;;;8.41;52.40
8575;BME280;4325;42.520;27.448;2022-12-13T09:12:52;100919.47;;;8.46;52.97
8575;BME280;4325;42.520;27.448;2022-12-13T09:15:19;100941.38;;;8.51;51.09
8575;BME280;4325;42.520;27.448;2022-12-13T09:17:47;100934.00;;;8.51;51.97
8575;BME280;4325;42.520;27.448;2022-12-13T09:20:14;100935.84;;;8.46;50.71
8575;BME280;4325;42.520;27.448;2022-12-13T09:22:41;100929.97;;;8.54;50.79
8575;BME280;4325;42.520;27.448;2022-12-13T09:25:08;100922.47;;;8.66;51.13
8575;BME280;4325;42.520;27.448;2022-12-13T09:27:35;100922.75;;;8.91;52.33
8575;BME280;4325;42.520;27.448;2022-12-13T09:30:02;100914.94;;;9.26;48.82
8575;BME280;4325;42.520;27.448;2022-12-13T09:32:30;100919.53;;;9.53;46.38
8575;BME280;4325;42.520;27.448;2022-12-13T09:34:59;100923.06;;;9.80;47.39
8575;BME280;4325;42.520;27.448;2022-12-13T09:37:26;100932.72;;;10.29;45.73
8575;BME280;4325;42.520;27.448;2022-12-13T09:39:54;100936.22;;;10.77;45.24
8575;BME280;4325;42.520;27.448;2022-12-13T09:42:23;100939.09;;;11.22;44.07
8575;BME280;4325;42.520;27.448;2022-12-13T09:44:54;100939.44;;;11.46;42.73
8575;BME280;4325;42.520;27.448;2022-12-13T09:47:28;100939.41;;;11.66;42.73
8575;BME280;4325;42.520;27.448;2022-12-13T09:49:59;100927.13;;;11.78;41.96
8575;BME280;4325;42.520;27.448;2022-12-13T09:52:29;100939.16;;;11.57;41.54
8575;BME280;4325;42.520;27.448;2022-12-13T09:55:01;100924.31;;;11.23;42.00
8575;BME280;4325;42.520;27.448;2022-12-13T09:57:30;100920.94;;;10.96;42.80
8575;BME280;4325;42.520;27.448;2022-12-13T09:59:57;100922.50;;;10.72;40.67
8575;BME280;4325;42.520;27.448;2022-12-13T10:02:26;100923.97;;;10.32;40.45
8575;BME280;4325;42.520;27.448;2022-12-13T10:04:56;100919.59;;;9.94;41.05
8575;BME280;4325;42.520;27.448;2022-12-13T10:07:38;100907.72;;;9.47;41.21
8575;BME280;4325;42.520;27.448;2022-12-13T10:10:06;100904.41;;;9.40;47.66
8575;BME280;4325;42.520;27.448;2022-12-13T10:12:35;100906.00;;;9.36;44.26
8575;BME280;4325;42.520;27.448;2022-12-13T10:15:04;100903.00;;;9.69;42.88
8575;BME280;4325;42.520;27.448;2022-12-13T10:17:34;100898.25;;;9.91;41.68
8575;BME280;4325;42.520;27.448;2022-12-13T10:20:04;100898.72;;;10.20;41.89
8575;BME280;4325;42.520;27.448;2022-12-13T10:22:31;100890.31;;;10.37;41.77
8575;BME280;4325;42.520;27.448;2022-12-13T10:25:01;100885.63;;;10.27;44.06
8575;BME280;4325;42.520;27.448;2022-12-13T10:27:33;100882.34;;;10.30;50.40
8575;BME280;4325;42.520;27.448;2022-12-13T10:30:06;100882.88;;;10.27;50.40
8575;BME280;4325;42.520;27.448;2022-12-13T10:32:42;100880.13;;;10.22;45.93
8575;BME280;4325;42.520;27.448;2022-12-13T10:35:23;100885.56;;;10.12;45.33
8575;BME280;4325;42.520;27.448;2022-12-13T10:37:51;100878.41;;;10.11;45.68
8575;BME280;4325;42.520;27.448;2022-12-13T10:40:32;100872.75;;;9.86;44.79
8575;BME280;4325;42.520;27.448;2022-12-13T10:43:13;100868.75;;;9.62;45.49
8575;BME280;4325;42.520;27.448;2022-12-13T10:45:41;100861.06;;;9.54;43.05
8575;BME280;4325;42.520;27.448;2022-12-13T10:48:18;100863.03;;;9.26;42.14
8575;BME280;4325;42.520;27.448;2022-12-13T10:50:56;100858.53;;;9.15;43.38
8575;BME280;4325;42.520;27.448;2022-12-13T10:53:29;100855.34;;;9.23;44.51
8575;BME280;4325;42.520;27.448;2022-12-13T10:55:58;100867.56;;;9.48;44.43
8575;BME280;4325;42.520;27.448;2022-12-13T10:58:35;100872.19;;;10.21;45.13
8575;BME280;4325;42.520;27.448;2022-12-13T11:01:18;100875.44;;;10.75;42.41
8575;BME280;4325;42.520;27.448;2022-12-13T11:03:55;100876.00;;;10.87;41.51
8575;BME280;4325;42.520;27.448;2022-12-13T11:06:24;100878.81;;;11.32;41.82
8575;BME280;4325;42.520;27.448;2022-12-13T11:08:52;100886.22;;;11.62;40.13
8575;BME280;4325;42.520;27.448;2022-12-13T11:11:26;100881.28;;;11.59;39.27
8575;BME280;4325;42.520;27.448;2022-12-13T11:13:55;100878.28;;;11.55;38.82
8575;BME280;4325;42.520;27.448;2022-12-13T11:16:28;100878.28;;;11.55;38.46
8575;BME280;4325;42.520;27.448;2022-12-13T11:18:58;100881.03;;;11.65;39.06
8575;BME280;4325;42.520;27.448;2022-12-13T11:21:28;100885.16;;;11.63;38.70
8575;BME280;4325;42.520;27.448;2022-12-13T11:23:58;100890.38;;;11.84;38.03
8575;BME280;4325;42.520;27.448;2022-12-13T11:26:29;100890.06;;;11.86;36.94
8575;BME280;4325;42.520;27.448;2022-12-13T11:29:18;100903.47;;;12.18;37.13
8575;BME280;4325;42.520;27.448;2022-12-13T11:31:56;100904.53;;;12.22;36.40
8575;BME280;4325;42.520;27.448;2022-12-13T11:34:31;100904.31;;;12.08;36.17
8575;BME280;4325;42.520;27.448;2022-12-13T11:37:10;100908.44;;;12.01;36.56
8575;BME280;4325;42.520;27.448;2022-12-13T11:39:44;100907.84;;;12.24;36.13
8575;BME280;4325;42.520;27.448;2022-12-13T11:42:20;100901.19;;;12.50;36.08
8575;BME280;4325;42.520;27.448;2022-12-13T11:44:57;100898.25;;;12.31;36.27
8575;BME280;4325;42.520;27.448;2022-12-13T11:47:30;100901.00;;;12.16;36.04
8575;BME280;4325;42.520;27.448;2022-12-13T11:50:02;100899.88;;;12.32;36.50
8575;BME280;4325;42.520;27.448;2022-12-13T11:52:35;100894.00;;;12.59;36.11
8575;BME280;4325;42.520;27.448;2022-12-13T11:55:13;100881.38;;;12.58;35.28
8575;BME280;4325;42.520;27.448;2022-12-13T11:57:45;100880.28;;;12.54;36.51
8575;BME280;4325;42.520;27.448;2022-12-13T12:00:26;100879.81;;;12.27;35.99
8575;BME280;4325;42.520;27.448;2022-12-13T12:03:01;100887.19;;;12.41;36.53
8575;BME280;4325;42.520;27.448;2022-12-13T12:05:34;100882.81;;;12.99;35.58
8575;BME280;4325;42.520;27.448;2022-12-13T12:08:08;100878.69;;;13.74;34.87
8575;BME280;4325;42.520;27.448;2022-12-13T12:10:40;100882.25;;;15.17;33.74
8575;BME280;4325;42.520;27.448;2022-12-13T12:13:16;100880.19;;;16.52;31.75
8575;BME280;4325;42.520;27.448;2022-12-13T12:15:49;100875.59;;;18.52;30.16
8575;BME280;4325;42.520;27.448;2022-12-13T12:18:18;100865.13;;;21.37;28.63
8575;BME280;4325;42.520;27.448;2022-12-13T12:20:59;100869.19;;;24.21;25.19
8575;BME280;4325;42.520;27.448;2022-12-13T12:23:36;100871.47;;;27.59;23.06
8575;BME280;4325;42.520;27.448;2022-12-13T12:26:09;100878.16;;;29.87;19.72
8575;BME280;4325;42.520;27.448;2022-12-13T12:28:54;100890.59;;;29.04;18.80
8575;BME280;4325;42.520;27.448;2022-12-13T12:31:28;100891.44;;;26.26;19.89
8575;BME280;4325;42.520;27.448;2022-12-13T12:34:02;100896.16;;;24.76;20.41
8575;BME280;4325;42.520;27.448;2022-12-13T12:36:53;100899.19;;;22.53;22.47
8575;BME280;4325;42.520;27.448;2022-12-13T12:39:32;100901.38;;;20.49;23.65
8575;BME280;4325;42.520;27.448;2022-12-13T12:45:26;100907.06;;;17.00;27.57
8575;BME280;4325;42.520;27.448;2022-12-13T12:48:00;100918.75;;;15.97;29.49
8575;BME280;4325;42.520;27.448;2022-12-13T12:50:37;100920.84;;;15.17;30.84
8575;BME280;4325;42.520;27.448;2022-12-13T12:53:24;100928.41;;;14.45;32.30
8575;BME280;4325;42.520;27.448;2022-12-13T12:56:03;100923.94;;;13.92;32.94
8575;BME280;4325;42.520;27.448;2022-12-13T12:58:37;100922.72;;;13.41;34.83
8575;BME280;4325;42.520;27.448;2022-12-13T13:01:21;100919.63;;;12.98;35.82
8575;BME280;4325;42.520;27.448;2022-12-13T13:03:52;100915.44;;;12.57;35.97
8575;BME280;4325;42.520;27.448;2022-12-13T13:06:22;100910.88;;;12.12;36.35
8575;BME280;4325;42.520;27.448;2022-12-13T13:08:53;100930.09;;;11.67;37.61
8575;BME280;4325;42.520;27.448;2022-12-13T13:11:24;100940.19;;;11.21;37.53
8575;BME280;4325;42.520;27.448;2022-12-13T13:14:25;100939.75;;;10.67;38.35
8575;BME280;4325;42.520;27.448;2022-12-13T13:16:54;100945.84;;;10.32;38.20
8575;BME280;4325;42.520;27.448;2022-12-13T13:19:46;100948.81;;;10.21;39.69
8575;BME280;4325;42.520;27.448;2022-12-13T13:22:30;100943.09;;;10.27;40.45
8575;BME280;4325;42.520;27.448;2022-12-13T13:25:11;100945.84;;;10.32;39.16
8575;BME280;4325;42.520;27.448;2022-12-13T13:27:41;100947.03;;;10.46;40.50
8575;BME280;4325;42.520;27.448;2022-12-13T13:30:16;100957.56;;;10.70;40.16